Time;durP1;ratioP1;P1;durP2;ratioP2;P2;SDS_P1;SDS_P2;PMS_P1;PMS_P2;Temp;Humidity;BMP_temperature;BMP_pressure;BME280_temperature;BME280_humidity;BME280_pressure;Samples;Min_cycle;Max_cycle;Signal;HPM_P1;HPM_P2
2021/07/14 00:00:22;;;;;;;18.38;9.38;;;21.30;99.90;;;;;;4189163;28;20548;-61
2021/07/14 00:02:23;;;;;;;15.38;9.15;;;21.30;99.90;;;;;;4189490;28;20032;-62
2021/07/14 00:04:24;;;;;;;17.05;9.57;;;21.30;99.90;;;;;;4189306;28;20036;-62
2021/07/14 00:06:25;;;;;;;20.77;9.38;;;21.20;99.90;;;;;;4189572;28;20045;-63
2021/07/14 00:08:26;;;;;;;15.52;9.15;;;21.20;99.90;;;;;;4188976;28;20032;-62
2021/07/14 00:10:31;;;;;;;14.88;9.02;;;21.20;99.90;;;;;;4188902;28;20037;-58
2021/07/14 00:12:32;;;;;;;18.40;9.30;;;21.20;99.90;;;;;;4189115;28;20082;-61
2021/07/14 00:24:06;;;;;;;10.63;8.68;;;21.00;99.90;;;;;;4179092;28;20048;-61
2021/07/14 00:26:07;;;;;;;13.82;9.02;;;21.00;99.90;;;;;;4188421;28;20041;-61
2021/07/14 00:28:08;;;;;;;12.00;9.65;;;20.90;99.90;;;;;;4189466;28;20101;-62
2021/07/14 00:30:15;;;;;;;15.35;9.95;;;20.90;99.90;;;;;;4188654;28;20082;-61
2021/07/14 00:32:16;;;;;;;13.50;9.10;;;21.00;99.90;;;;;;4188447;28;20052;-61
2021/07/14 00:34:20;;;;;;;14.82;8.68;;;21.00;99.90;;;;;;4188560;28;20562;-60
2021/07/14 00:36:21;;;;;;;15.95;9.40;;;21.00;99.90;;;;;;4188635;28;20059;-62
2021/07/14 00:38:22;;;;;;;16.15;10.25;;;20.90;99.90;;;;;;4187433;28;21019;-61
2021/07/14 00:40:23;;;;;;;18.75;10.23;;;20.90;99.90;;;;;;4188856;28;20037;-61
2021/07/14 00:42:25;;;;;;;18.27;10.90;;;20.80;99.90;;;;;;4188976;28;20081;-60
2021/07/14 00:44:26;;;;;;;15.30;11.38;;;20.70;99.90;;;;;;4188344;28;20040;-61
2021/07/14 00:46:28;;;;;;;20.92;11.10;;;20.60;99.90;;;;;;4188705;28;20044;-61
2021/07/14 00:48:29;;;;;;;14.18;10.48;;;20.60;99.90;;;;;;4188553;28;20037;-61
2021/07/14 00:50:30;;;;;;;14.00;10.20;;;20.60;99.90;;;;;;4188293;28;20041;-62
2021/07/14 00:52:31;;;;;;;15.63;10.50;;;20.50;99.90;;;;;;4188186;28;20067;-62
2021/07/14 00:54:33;;;;;;;15.98;10.35;;;20.50;99.90;;;;;;4188724;28;20090;-63
2021/07/14 00:56:34;;;;;;;13.50;11.13;;;20.40;99.90;;;;;;4188871;28;20040;-62
2021/07/14 00:58:35;;;;;;;13.93;10.05;;;20.40;99.90;;;;;;4189094;28;20551;-62
2021/07/14 01:00:36;;;;;;;13.25;9.65;;;20.40;99.90;;;;;;4188639;28;20098;-61
2021/07/14 01:02:38;;;;;;;12.32;9.10;;;20.30;99.90;;;;;;4192062;28;20074;-62
2021/07/14 01:04:52;;;;;;;15.70;9.98;;;20.30;99.90;;;;;;4192042;28;20024;-62
2021/07/14 01:07:08;;;;;;;17.67;8.77;;;20.20;99.90;;;;;;4191305;28;20086;-62
2021/07/14 01:09:11;;;;;;;14.20;10.35;;;20.30;99.90;;;;;;4191434;28;20078;-62
2021/07/14 01:11:17;;;;;;;14.52;11.27;;;20.30;99.90;;;;;;4192132;28;20033;-62
2021/07/14 01:13:43;;;;;;;15.63;10.55;;;20.20;99.90;;;;;;4191945;28;20058;-60
2021/07/14 01:15:53;;;;;;;22.77;10.88;;;20.20;99.90;;;;;;4192265;28;20382;-62
2021/07/14 01:17:59;;;;;;;18.42;10.77;;;20.20;99.90;;;;;;4192410;28;20098;-62
2021/07/14 01:20:04;;;;;;;15.32;10.70;;;20.20;99.90;;;;;;4191748;28;20037;-62
2021/07/14 01:22:19;;;;;;;15.88;10.32;;;20.20;99.90;;;;;;4191632;28;20040;-61
2021/07/14 01:24:35;;;;;;;16.00;10.43;;;20.10;99.90;;;;;;4192292;28;20036;-61
2021/07/14 01:27:06;;;;;;;15.48;9.68;;;20.10;99.90;;;;;;4191396;28;20044;-61
2021/07/14 01:29:11;;;;;;;17.92;10.65;;;20.10;99.90;;;;;;4192313;28;20082;-61
2021/07/14 01:31:18;;;;;;;17.92;12.35;;;20.10;99.90;;;;;;4191771;28;20074;-62
2021/07/14 01:33:24;;;;;;;17.98;11.30;;;20.10;99.90;;;;;;4192033;28;20078;-61
2021/07/14 01:35:32;;;;;;;15.70;11.55;;;20.00;99.90;;;;;;4191190;28;20361;-63
2021/07/14 01:37:34;;;;;;;15.73;10.95;;;20.00;99.90;;;;;;4191038;28;20098;-62
2021/07/14 01:39:36;;;;;;;17.42;11.30;;;19.90;99.90;;;;;;4191428;28;20045;-62
2021/07/14 01:41:41;;;;;;;19.90;13.00;;;20.00;99.90;;;;;;4191614;28;20033;-62
2021/07/14 01:43:46;;;;;;;20.73;12.70;;;20.00;99.90;;;;;;4191315;28;20020;-62
2021/07/14 01:45:51;;;;;;;28.75;13.15;;;19.90;99.90;;;;;;4191654;28;20114;-62
2021/07/14 01:47:52;;;;;;;17.75;12.88;;;19.80;99.90;;;;;;4191756;28;20037;-62
2021/07/14 01:49:57;;;;;;;20.85;12.88;;;19.70;99.90;;;;;;4191560;28;20550;-61
2021/07/14 01:52:09;;;;;;;20.52;13.15;;;19.60;99.90;;;;;;4191159;28;20028;-61
2021/07/14 01:54:15;;;;;;;28.40;14.95;;;19.60;99.90;;;;;;4191467;28;20029;-62
2021/07/14 01:56:17;;;;;;;18.70;13.70;;;19.50;99.90;;;;;;4191405;28;20017;-61
2021/07/14 01:58:19;;;;;;;26.95;12.82;;;19.40;99.90;;;;;;4191384;28;20028;-62
2021/07/14 02:00:21;;;;;;;15.60;11.98;;;19.40;99.90;;;;;;4191245;28;20114;-62
2021/07/14 02:02:26;;;;;;;20.95;13.82;;;19.40;99.90;;;;;;4191343;28;20070;-61
2021/07/14 02:04:30;;;;;;;21.42;13.38;;;19.30;99.90;;;;;;4190821;28;20048;-63
2021/07/14 02:06:33;;;;;;;28.83;13.95;;;19.20;99.90;;;;;;4191053;28;20476;-62
2021/07/14 02:08:37;;;;;;;22.38;13.40;;;19.20;99.90;;;;;;4191161;28;20085;-62
2021/07/14 02:10:39;;;;;;;19.48;13.38;;;19.20;99.90;;;;;;4191072;28;20090;-61
2021/07/14 02:12:46;;;;;;;20.67;12.73;;;19.10;99.90;;;;;;4189724;28;20106;-62
2021/07/14 02:14:57;;;;;;;17.00;13.10;;;19.10;99.90;;;;;;4191063;28;20102;-62
2021/07/14 02:17:11;;;;;;;21.63;13.55;;;19.10;99.90;;;;;;4191869;28;20098;-61
2021/07/14 02:19:15;;;;;;;14.95;12.98;;;19.00;99.90;;;;;;4191107;28;20098;-62
2021/07/14 02:21:16;;;;;;;19.48;12.95;;;18.90;99.90;;;;;;4191172;28;20048;-61
2021/07/14 02:23:17;;;;;;;20.50;12.82;;;18.90;99.90;;;;;;4190618;28;20500;-61
2021/07/14 02:25:20;;;;;;;25.95;13.82;;;18.90;99.90;;;;;;4191047;28;20036;-62
2021/07/14 02:27:22;;;;;;;19.60;11.73;;;18.90;99.90;;;;;;4190070;28;20056;-62
2021/07/14 02:29:24;;;;;;;17.65;12.75;;;18.90;99.90;;;;;;4189375;28;20037;-62
2021/07/14 02:31:25;;;;;;;18.77;12.98;;;19.00;99.90;;;;;;4190221;28;20082;-62
2021/07/14 02:33:26;;;;;;;14.98;12.77;;;19.00;99.90;;;;;;4190845;28;20028;-61
2021/07/14 02:35:29;;;;;;;18.25;13.05;;;19.20;99.90;;;;;;4190374;28;20074;-61
2021/07/14 02:37:48;;;;;;;17.83;12.63;;;19.20;99.90;;;;;;4190113;28;20086;-61
2021/07/14 02:39:52;;;;;;;15.88;11.60;;;19.30;99.90;;;;;;4190764;28;20501;-61
2021/07/14 02:42:02;;;;;;;18.27;12.02;;;19.30;99.90;;;;;;4190536;28;20090;-61
2021/07/14 02:44:08;;;;;;;;;;;19.40;99.90;;;;;;4191140;28;20133;-62
2021/07/14 02:46:15;;;;;;;24.42;12.15;;;19.50;99.90;;;;;;4190734;28;19916;-61
2021/07/14 02:48:19;;;;;;;20.77;13.10;;;19.50;99.90;;;;;;4190523;28;20082;-63
2021/07/14 02:50:23;;;;;;;19.13;12.50;;;19.60;99.90;;;;;;4190360;28;20102;-63
2021/07/14 02:52:27;;;;;;;16.95;12.18;;;19.60;99.90;;;;;;4190161;28;20034;-62
2021/07/14 02:54:31;;;;;;;13.35;10.93;;;19.70;99.90;;;;;;4190383;28;20044;-62
2021/07/14 02:56:34;;;;;;;17.13;11.35;;;19.80;99.90;;;;;;4190181;28;20093;-62
2021/07/14 02:58:36;;;;;;;15.68;11.80;;;19.80;99.90;;;;;;4190443;28;20044;-62
2021/07/14 03:00:39;;;;;;;17.05;12.45;;;19.80;99.90;;;;;;4189851;28;20040;-62
2021/07/14 03:02:41;;;;;;;21.00;12.48;;;19.90;99.90;;;;;;4190455;28;20032;-62
2021/07/14 03:04:49;;;;;;;17.27;12.15;;;19.90;99.90;;;;;;4190465;28;20090;-63
2021/07/14 03:06:50;;;;;;;19.33;12.27;;;19.90;99.90;;;;;;4190045;28;20556;-63
2021/07/14 03:08:52;;;;;;;17.38;13.02;;;19.90;99.90;;;;;;4190384;28;20032;-63
2021/07/14 03:10:56;;;;;;;17.67;11.80;;;19.90;99.90;;;;;;4189633;28;20044;-62
2021/07/14 03:13:02;;;;;;;17.60;12.68;;;19.90;99.90;;;;;;4190207;28;20090;-62
2021/07/14 03:15:09;;;;;;;16.35;12.32;;;19.90;99.90;;;;;;4189613;28;20082;-63
2021/07/14 03:17:12;;;;;;;17.25;11.35;;;20.00;99.90;;;;;;4190783;28;20094;-61
2021/07/14 03:19:13;;;;;;;18.15;12.27;;;20.10;99.90;;;;;;4189608;28;20439;-61
2021/07/14 03:21:15;;;;;;;17.50;12.55;;;20.10;99.90;;;;;;4190495;28;20098;-61
2021/07/14 03:23:17;;;;;;;18.08;12.30;;;20.20;99.90;;;;;;4189183;28;20032;-61
2021/07/14 03:25:19;;;;;;;17.02;11.95;;;20.30;99.90;;;;;;4189862;28;20041;-61
2021/07/14 03:27:20;;;;;;;15.85;10.88;;;20.30;99.90;;;;;;4189801;28;20040;-61
2021/07/14 03:29:23;;;;;;;15.75;11.30;;;20.40;99.90;;;;;;4189832;28;20110;-61
2021/07/14 03:31:25;;;;;;;20.23;11.40;;;20.40;99.90;;;;;;4190180;28;20090;-61
2021/07/14 03:33:26;;;;;;;14.05;11.20;;;20.50;99.90;;;;;;4189571;28;20431;-61
2021/07/14 03:35:27;;;;;;;17.30;11.32;;;20.70;99.90;;;;;;4189229;28;20048;-61
2021/07/14 03:37:31;;;;;;;22.95;12.38;;;20.80;99.90;;;;;;4189553;28;20052;-62
2021/07/14 03:39:40;;;;;;;20.33;11.35;;;20.90;99.90;;;;;;4189539;28;20028;-61
2021/07/14 03:41:43;;;;;;;18.13;11.50;;;21.00;99.90;;;;;;4189454;28;20044;-60
2021/07/14 03:43:44;;;;;;;21.30;11.63;;;21.30;99.90;;;;;;4189323;28;20037;-62
2021/07/14 03:45:46;;;;;;;15.60;11.60;;;21.40;99.90;;;;;;4189408;28;20545;-62
2021/07/14 03:47:49;;;;;;;16.92;11.27;;;21.60;99.90;;;;;;4190336;28;20065;-61
2021/07/14 03:49:51;;;;;;;14.57;10.88;;;21.70;99.90;;;;;;4189239;28;20086;-63
2021/07/14 03:51:53;;;;;;;16.30;12.35;;;21.90;99.90;;;;;;4189621;28;20040;-62
2021/07/14 03:53:55;;;;;;;15.75;12.65;;;22.10;99.90;;;;;;4188977;28;20054;-62
2021/07/14 03:55:56;;;;;;;24.15;12.82;;;22.10;99.90;;;;;;4189547;28;20032;-62
2021/07/14 03:57:58;;;;;;;17.17;12.77;;;22.10;99.90;;;;;;4188862;28;20045;-61
2021/07/14 03:59:59;;;;;;;13.93;11.95;;;22.20;99.90;;;;;;4189285;28;20515;-61
2021/07/14 04:02:01;;;;;;;17.05;13.07;;;22.40;99.90;;;;;;4189175;28;20036;-60
2021/07/14 04:04:05;;;;;;;22.48;13.80;;;22.50;99.90;;;;;;4189295;28;20109;-62
2021/07/14 04:06:08;;;;;;;26.10;15.23;;;22.60;99.90;;;;;;4188889;28;20040;-61
2021/07/14 04:08:12;;;;;;;31.50;14.05;;;22.50;99.90;;;;;;4188853;28;20102;-61
2021/07/14 04:10:15;;;;;;;27.35;14.52;;;22.30;99.90;;;;;;4188897;28;20020;-62
2021/07/14 04:12:16;;;;;;;25.40;13.77;;;22.20;99.90;;;;;;4189077;28;20373;-61
2021/07/14 04:14:17;;;;;;;22.83;13.68;;;22.20;99.90;;;;;;4189046;28;20029;-61
2021/07/14 04:16:19;;;;;;;28.17;13.82;;;22.30;99.90;;;;;;4188822;28;20028;-60
2021/07/14 04:18:20;;;;;;;29.90;14.52;;;22.40;99.90;;;;;;4189190;28;20036;-61
2021/07/14 04:20:21;;;;;;;25.02;13.63;;;22.60;99.90;;;;;;4189034;28;20093;-62
2021/07/14 04:22:22;;;;;;;26.70;13.95;;;22.70;99.90;;;;;;4188352;28;20036;-60
2021/07/14 04:24:24;;;;;;;26.80;13.50;;;23.10;99.90;;;;;;4188676;28;20097;-61
2021/07/14 04:26:26;;;;;;;17.70;11.40;;;23.60;99.90;;;;;;4189044;28;20037;-62
2021/07/14 04:28:27;;;;;;;22.15;12.50;;;24.20;99.90;;;;;;4188558;28;20105;-63
2021/07/14 04:30:28;;;;;;;22.42;11.73;;;24.80;99.90;;;;;;4188907;28;20117;-63
2021/07/14 04:32:29;;;;;;;22.58;11.20;;;25.20;99.90;;;;;;4188239;28;20097;-62
2021/07/14 04:34:30;;;;;;;20.35;11.95;;;25.70;99.90;;;;;;4188465;28;20079;-62
2021/07/14 04:36:32;;;;;;;20.33;12.35;;;25.90;99.90;;;;;;4187441;28;20040;-62
2021/07/14 04:38:33;;;;;;;27.70;12.30;;;26.00;99.90;;;;;;4188445;28;20048;-62
2021/07/14 04:40:35;;;;;;;19.45;11.43;;;25.80;99.90;;;;;;4188658;28;20037;-62
2021/07/14 04:42:36;;;;;;;24.60;10.90;;;25.70;99.90;;;;;;4188339;28;20016;-63
2021/07/14 04:44:58;;;;;;;17.65;11.07;;;25.70;99.90;;;;;;4188567;28;20093;-63
2021/07/14 04:46:59;;;;;;;23.05;11.20;;;25.50;99.90;;;;;;4188809;28;20110;-62
2021/07/14 04:49:00;;;;;;;14.63;11.15;;;25.20;99.90;;;;;;4188762;28;20094;-62
2021/07/14 04:51:02;;;;;;;20.73;12.00;;;24.90;99.90;;;;;;4188481;28;20461;-62
2021/07/14 04:53:03;;;;;;;18.27;11.38;;;24.50;99.90;;;;;;4188213;28;20048;-62
2021/07/14 04:55:05;;;;;;;16.88;10.35;;;24.30;99.90;;;;;;4188532;28;20028;-62
2021/07/14 04:57:06;;;;;;;19.60;11.20;;;24.00;99.90;;;;;;4188569;28;20032;-63
2021/07/14 04:59:07;;;;;;;19.42;12.57;;;23.80;99.90;;;;;;4188303;28;20036;-62
2021/07/14 05:01:08;;;;;;;19.08;11.73;;;23.70;99.90;;;;;;4188664;28;20173;-62
2021/07/14 05:03:10;;;;;;;15.60;11.27;;;23.90;99.90;;;;;;4188337;28;20066;-62
2021/07/14 05:05:13;;;;;;;17.08;11.98;;;23.90;99.90;;;;;;4188906;28;20554;-62
2021/07/14 05:07:14;;;;;;;16.40;11.52;;;24.10;99.90;;;;;;4187512;28;20563;-62
2021/07/14 05:09:15;;;;;;;19.38;12.07;;;24.20;99.90;;;;;;4188610;28;20542;-62
2021/07/14 05:11:16;;;;;;;18.33;11.57;;;24.40;99.90;;;;;;4187782;28;20028;-62
2021/07/14 05:13:17;;;;;;;18.52;11.02;;;24.40;99.90;;;;;;4188610;28;20177;-62
2021/07/14 05:15:18;;;;;;;17.52;12.15;;;24.60;99.90;;;;;;4188070;28;20844;-62
2021/07/14 05:17:20;;;;;;;16.10;11.10;;;24.80;99.90;;;;;;4188152;28;20044;-62
2021/07/14 05:19:21;;;;;;;15.93;11.65;;;24.70;99.90;;;;;;4187847;28;20037;-61
2021/07/14 05:21:22;;;;;;;15.40;10.80;;;24.70;99.90;;;;;;4188216;28;20040;-62
2021/07/14 05:23:26;;;;;;;12.68;10.30;;;24.60;99.90;;;;;;4187764;28;20078;-62
2021/07/14 05:25:27;;;;;;;12.75;10.77;;;24.50;99.90;;;;;;4187917;28;20090;-62
2021/07/14 05:27:28;;;;;;;14.15;10.45;;;24.50;99.90;;;;;;4188132;28;20110;-62
2021/07/14 05:29:29;;;;;;;15.13;9.60;;;24.70;99.90;;;;;;4188169;28;20382;-62
2021/07/14 05:31:30;;;;;;;19.10;10.10;;;24.80;99.90;;;;;;4188691;28;20044;-62
2021/07/14 05:33:32;;;;;;;14.82;9.88;;;24.80;99.90;;;;;;4187512;28;20090;-61
2021/07/14 05:35:33;;;;;;;19.75;10.32;;;24.90;99.90;;;;;;4188086;28;20028;-62
2021/07/14 05:37:34;;;;;;;17.13;10.40;;;25.00;99.90;;;;;;4186875;28;20048;-61
2021/07/14 05:39:36;;;;;;;18.52;9.63;;;25.30;99.90;;;;;;4187753;28;20024;-61
2021/07/14 05:41:38;;;;;;;14.30;9.80;;;25.30;99.90;;;;;;4187184;28;20597;-62
2021/07/14 05:43:40;;;;;;;18.42;9.88;;;25.50;99.90;;;;;;4188256;28;20090;-61
2021/07/14 05:45:41;;;;;;;13.75;10.00;;;25.50;99.90;;;;;;4187965;28;20032;-61
2021/07/14 05:47:43;;;;;;;13.90;9.43;;;25.50;99.90;;;;;;4191490;28;20452;-62
2021/07/14 05:49:44;;;;;;;13.00;9.93;;;25.50;99.90;;;;;;4191305;28;20038;-61
2021/07/14 05:51:45;;;;;;;17.38;9.98;;;25.50;99.90;;;;;;4190818;28;20028;-62
2021/07/14 05:53:47;;;;;;;14.15;9.05;;;25.50;99.90;;;;;;4191303;28;20411;-62
2021/07/14 05:55:48;;;;;;;14.30;9.90;;;25.70;99.90;;;;;;4191290;28;20082;-62
2021/07/14 05:57:51;;;;;;;10.93;9.48;;;25.70;99.90;;;;;;4191535;28;20048;-61
2021/07/14 05:59:52;;;;;;;10.30;8.63;;;25.80;99.90;;;;;;4189004;28;20025;-61
2021/07/14 06:01:54;;;;;;;16.35;9.80;;;25.90;99.90;;;;;;4191174;28;20077;-62
2021/07/14 06:03:55;;;;;;;18.08;9.40;;;25.90;99.90;;;;;;4190182;28;20016;-62
2021/07/14 06:05:56;;;;;;;12.85;9.40;;;25.90;99.90;;;;;;4190795;28;20025;-61
2021/07/14 06:07:57;;;;;;;16.50;9.43;;;25.90;99.90;;;;;;4189959;28;20040;-62
2021/07/14 06:09:58;;;;;;;10.18;9.02;;;25.80;99.90;;;;;;4190698;28;20028;-62
2021/07/14 06:12:00;;;;;;;11.30;7.90;;;25.80;99.90;;;;;;4190511;28;20028;-61
2021/07/14 06:14:03;;;;;;;15.85;8.68;;;25.90;99.90;;;;;;4190954;28;20074;-62
2021/07/14 06:16:04;;;;;;;10.68;7.95;;;25.90;99.80;;;;;;4190247;28;20117;-62
2021/07/14 06:18:05;;;;;;;14.15;8.65;;;26.00;99.80;;;;;;4189961;28;20024;-62
2021/07/14 06:20:07;;;;;;;13.05;7.93;;;26.10;99.70;;;;;;4190652;28;20899;-61
2021/07/14 06:22:10;;;;;;;12.45;8.13;;;26.10;99.50;;;;;;4190581;28;20030;-62
2021/07/14 06:24:11;;;;;;;14.77;8.50;;;26.10;99.40;;;;;;4190619;28;20447;-62
2021/07/14 06:26:12;;;;;;;13.90;8.35;;;26.30;99.30;;;;;;4190253;28;20085;-62
2021/07/14 06:28:14;;;;;;;10.90;7.50;;;26.60;99.10;;;;;;4190797;28;20040;-62
2021/07/14 06:30:16;;;;;;;10.30;8.32;;;26.60;98.80;;;;;;4190187;28;20044;-60
2021/07/14 06:32:17;;;;;;;14.48;8.05;;;26.80;98.50;;;;;;4190936;28;20050;-61
2021/07/14 06:34:18;;;;;;;10.18;7.88;;;26.90;98.50;;;;;;4189693;28;20077;-62
2021/07/14 06:36:22;;;;;;;10.88;8.30;;;27.00;98.10;;;;;;4190239;28;20076;-62
2021/07/14 06:38:23;;;;;;;10.23;7.68;;;27.00;98.00;;;;;;4189917;28;20578;-63
2021/07/14 06:40:25;;;;;;;21.20;8.73;;;27.00;98.10;;;;;;4190994;28;20049;-63
2021/07/14 06:42:26;;;;;;;16.83;9.38;;;27.10;98.10;;;;;;4189703;28;20029;-63
2021/07/14 06:44:27;;;;;;;10.63;7.75;;;27.50;98.00;;;;;;4190488;28;20911;-63
2021/07/14 06:46:29;;;;;;;12.05;7.85;;;27.80;97.60;;;;;;4189840;28;20029;-61
2021/07/14 06:48:30;;;;;;;11.13;7.72;;;27.80;97.30;;;;;;4190626;28;20036;-61
2021/07/14 06:50:31;;;;;;;12.15;7.30;;;27.80;97.20;;;;;;4190122;28;20020;-61
2021/07/14 06:52:32;;;;;;;12.65;8.65;;;27.90;97.00;;;;;;4190102;28;20041;-60
2021/07/14 06:54:33;;;;;;;12.32;7.28;;;27.80;96.80;;;;;;4190105;28;20048;-61
2021/07/14 06:56:34;;;;;;;13.52;7.40;;;27.90;96.70;;;;;;4190155;28;20086;-61
2021/07/14 06:58:37;;;;;;;10.10;7.90;;;27.90;96.60;;;;;;4189331;28;20033;-61
2021/07/14 07:00:38;;;;;;;10.75;7.15;;;27.80;96.50;;;;;;4190160;28;20040;-62
2021/07/14 07:02:40;;;;;;;8.90;7.60;;;27.80;96.40;;;;;;4190045;28;20621;-60
2021/07/14 07:04:41;;;;;;;8.07;7.07;;;27.70;96.40;;;;;;4189640;28;20040;-62
2021/07/14 07:06:42;;;;;;;8.88;7.22;;;27.70;96.50;;;;;;4190092;28;20040;-62
2021/07/14 07:08:43;;;;;;;27.20;8.65;;;27.70;96.50;;;;;;4189612;28;20037;-61
2021/07/14 07:10:46;;;;;;;13.50;7.82;;;27.80;96.40;;;;;;4190043;28;20098;-62
2021/07/14 07:12:47;;;;;;;11.27;7.18;;;27.90;96.30;;;;;;4190173;28;20108;-61
2021/07/14 07:14:48;;;;;;;10.20;7.57;;;28.00;96.10;;;;;;4189871;28;20442;-63
2021/07/14 07:16:49;;;;;;;11.75;7.47;;;28.10;95.70;;;;;;4189545;28;20024;-62
2021/07/14 07:18:50;;;;;;;9.93;7.65;;;28.10;95.70;;;;;;4190082;28;20493;-63
2021/07/14 07:20:52;;;;;;;13.02;7.20;;;28.10;95.70;;;;;;4189507;28;20033;-62
2021/07/14 07:22:53;;;;;;;10.45;7.32;;;28.10;95.60;;;;;;4189671;28;20133;-62
2021/07/14 07:24:56;;;;;;;14.70;7.53;;;28.10;95.50;;;;;;4189258;28;20020;-62
2021/07/14 07:26:57;;;;;;;11.45;7.70;;;28.20;95.50;;;;;;4189268;28;20025;-62
2021/07/14 07:29:03;;;;;;;11.13;7.75;;;28.20;95.40;;;;;;4189700;28;20078;-60
2021/07/14 07:31:06;;;;;;;14.32;7.97;;;28.30;95.50;;;;;;4189533;28;20090;-61
2021/07/14 07:33:08;;;;;;;11.95;8.07;;;28.20;95.30;;;;;;4189488;28;20028;-61
2021/07/14 07:35:10;;;;;;;15.07;7.45;;;28.20;95.50;;;;;;4189052;28;20090;-61
2021/07/14 07:37:11;;;;;;;11.98;8.00;;;28.10;95.70;;;;;;4188880;28;20113;-61
2021/07/14 07:39:14;;;;;;;11.60;8.02;;;28.00;95.80;;;;;;4188659;28;20522;-61
2021/07/14 07:41:16;;;;;;;13.52;7.65;;;27.90;95.90;;;;;;4189388;28;20477;-61
2021/07/14 07:43:18;;;;;;;10.07;7.70;;;27.90;95.80;;;;;;4188727;28;20919;-62
2021/07/14 07:45:19;;;;;;;12.55;8.25;;;27.90;95.70;;;;;;4189572;28;20024;-62
2021/07/14 07:47:20;;;;;;;15.60;7.78;;;27.90;95.60;;;;;;4188710;28;20161;-62
2021/07/14 07:49:21;;;;;;;10.93;8.02;;;28.00;95.50;;;;;;4189879;28;20082;-62
2021/07/14 07:51:24;;;;;;;10.68;8.27;;;28.10;95.20;;;;;;4188947;28;20025;-62
2021/07/14 07:53:25;;;;;;;15.02;8.27;;;27.90;95.30;;;;;;4189649;28;20032;-61
2021/07/14 07:55:26;;;;;;;18.30;8.75;;;27.90;95.40;;;;;;4189161;28;20028;-63
2021/07/14 07:57:28;;;;;;;15.73;9.55;;;27.90;95.30;;;;;;4189435;28;20077;-62
2021/07/14 07:59:29;;;;;;;11.43;8.27;;;27.80;95.40;;;;;;4189371;28;20044;-62
2021/07/14 08:01:31;;;;;;;19.73;9.10;;;28.00;95.40;;;;;;4189183;28;20525;-62
2021/07/14 08:03:32;;;;;;;10.85;8.38;;;28.00;95.40;;;;;;4188900;28;20062;-59
2021/07/14 08:05:33;;;;;;;12.68;8.43;;;28.20;95.30;;;;;;4188863;28;20082;-62
2021/07/14 08:07:35;;;;;;;11.25;7.47;;;28.30;95.30;;;;;;4188846;28;20040;-62
2021/07/14 08:09:37;;;;;;;12.90;8.65;;;28.40;95.20;;;;;;4188927;28;20044;-61
2021/07/14 08:11:38;;;;;;;15.70;7.85;;;28.50;95.30;;;;;;4189084;28;20090;-61
2021/07/14 08:13:39;;;;;;;12.98;7.82;;;28.80;94.90;;;;;;4188593;28;20416;-60
2021/07/14 08:15:40;;;;;;;10.00;7.60;;;28.90;94.50;;;;;;4189401;28;20453;-61
2021/07/14 08:17:42;;;;;;;14.15;8.02;;;28.90;94.50;;;;;;4188377;28;20378;-62
2021/07/14 08:19:43;;;;;;;9.77;7.70;;;29.10;94.70;;;;;;4189233;28;20740;-61
2021/07/14 08:21:44;;;;;;;13.85;7.07;;;29.20;94.30;;;;;;4188054;28;20094;-62
2021/07/14 08:23:48;;;;;;;18.42;8.38;;;29.30;93.90;;;;;;4187440;28;20086;-62
2021/07/14 08:25:51;;;;;;;12.05;8.32;;;29.40;93.70;;;;;;4188446;28;20107;-61
2021/07/14 08:27:52;;;;;;;11.15;7.57;;;29.50;93.20;;;;;;4188524;28;20101;-62
2021/07/14 08:29:58;;;;;;;11.73;8.10;;;29.60;93.20;;;;;;4188535;28;20062;-62
2021/07/14 08:31:59;;;;;;;9.32;7.93;;;29.80;93.30;;;;;;4188593;28;20037;-63
2021/07/14 08:34:01;;;;;;;10.45;7.30;;;30.00;93.10;;;;;;4188482;28;20070;-62
2021/07/14 08:36:02;;;;;;;15.38;7.90;;;30.00;92.40;;;;;;4187886;28;20078;-62
2021/07/14 08:38:03;;;;;;;15.65;7.35;;;29.90;92.20;;;;;;4188376;28;20048;-63
2021/07/14 08:40:09;;;;;;;10.48;7.60;;;29.90;92.20;;;;;;4187970;28;20048;-63
2021/07/14 08:42:14;;;;;;;9.95;8.00;;;30.00;92.10;;;;;;4186921;28;20036;-62
2021/07/14 08:44:16;;;;;;;12.45;7.03;;;30.00;92.00;;;;;;4188582;28;20098;-62
2021/07/14 08:46:17;;;;;;;12.18;7.75;;;30.00;91.80;;;;;;4188851;28;20130;-62
2021/07/14 08:48:18;;;;;;;8.68;7.45;;;30.00;91.80;;;;;;4188798;28;20052;-62
2021/07/14 08:50:21;;;;;;;12.00;7.78;;;30.10;91.80;;;;;;4189047;28;20037;-63
2021/07/14 08:52:22;;;;;;;12.25;7.75;;;30.10;91.50;;;;;;4188306;28;20074;-62
2021/07/14 08:54:24;;;;;;;16.33;7.88;;;30.00;91.70;;;;;;4188365;28;20028;-62
2021/07/14 08:56:27;;;;;;;13.40;7.82;;;30.10;91.40;;;;;;4188096;28;20032;-63
2021/07/14 08:58:29;;;;;;;9.02;7.00;;;30.20;91.10;;;;;;4188671;28;20074;-62
2021/07/14 09:00:31;;;;;;;14.90;8.18;;;30.20;91.10;;;;;;4187934;28;20517;-62
2021/07/14 09:02:34;;;;;;;9.65;7.75;;;30.20;90.80;;;;;;4188729;28;20102;-60
2021/07/14 09:04:36;;;;;;;13.93;8.10;;;30.30;91.10;;;;;;4188435;28;20029;-60
2021/07/14 09:06:37;;;;;;;13.65;7.85;;;30.30;90.80;;;;;;4188405;28;20009;-61
2021/07/14 09:08:39;;;;;;;12.88;7.22;;;30.30;90.90;;;;;;4188580;28;20082;-62
2021/07/14 09:10:41;;;;;;;10.40;7.80;;;30.30;90.90;;;;;;4187178;28;20059;-61
2021/07/14 09:12:45;;;;;;;9.63;6.82;;;30.40;90.60;;;;;;4187936;28;20028;-60
2021/07/14 09:14:48;;;;;;;8.20;7.40;;;30.30;90.50;;;;;;4188387;28;20090;-61
2021/07/14 09:16:51;;;;;;;12.80;8.15;;;30.30;90.60;;;;;;4188356;28;20037;-61
2021/07/14 09:19:15;;;;;;;13.18;8.10;;;30.40;91.00;;;;;;4188018;28;20091;-61
2021/07/14 09:21:17;;;;;;;15.30;8.10;;;30.50;91.20;;;;;;4188797;28;20024;-62
2021/07/14 09:23:22;;;;;;;18.88;8.35;;;30.50;91.30;;;;;;4191447;28;20025;-62
2021/07/14 09:25:23;;;;;;;9.88;8.18;;;30.50;91.40;;;;;;4191474;28;20025;-61
2021/07/14 09:27:35;;;;;;;18.65;8.80;;;30.60;90.90;;;;;;4191049;28;20109;-62
2021/07/14 09:29:36;;;;;;;13.50;7.65;;;30.50;90.60;;;;;;4191241;28;20470;-61
2021/07/14 09:31:44;;;;;;;27.73;8.18;;;30.40;90.50;;;;;;4191041;28;20484;-61
2021/07/14 09:33:45;;;;;;;13.38;7.80;;;30.40;90.10;;;;;;4191138;28;20048;-61
2021/07/14 09:35:50;;;;;;;14.55;8.27;;;30.30;90.40;;;;;;4190459;28;20025;-62
2021/07/14 09:37:52;;;;;;;10.32;8.00;;;30.20;90.50;;;;;;4191076;28;20048;-62
2021/07/14 09:39:54;;;;;;;23.88;8.50;;;30.10;90.40;;;;;;4190515;28;20430;-62
2021/07/14 09:42:10;;;;;;;11.95;8.10;;;30.10;90.70;;;;;;4191477;28;20028;-62
2021/07/14 09:44:45;;;;;;;14.25;8.75;;;30.10;90.80;;;;;;4190534;28;20029;-62
2021/07/14 09:47:19;;;;;;;12.15;8.02;;;30.20;90.10;;;;;;4191052;28;20110;-62
2021/07/14 09:49:33;;;;;;;10.82;8.02;;;30.20;90.60;;;;;;4191198;28;20036;-62
2021/07/14 09:51:35;;;;;;;12.20;7.70;;;30.30;90.30;;;;;;4189796;28;20036;-61
2021/07/14 09:53:42;;;;;;;10.02;7.78;;;30.40;90.10;;;;;;4190695;28;20416;-64
2021/07/14 09:55:43;;;;;;;15.95;8.00;;;30.40;90.00;;;;;;4190965;28;20070;-62
2021/07/14 09:57:44;;;;;;;18.05;8.75;;;30.50;90.10;;;;;;4190587;28;20431;-62
2021/07/14 09:59:46;;;;;;;13.60;8.05;;;30.60;90.40;;;;;;4190942;28;20036;-62
2021/07/14 10:01:50;;;;;;;13.95;7.60;;;30.80;90.70;;;;;;4190353;28;20036;-62
2021/07/14 10:03:52;;;;;;;8.48;6.70;;;30.80;90.20;;;;;;4191456;28;20055;-62
2021/07/14 10:06:25;;;;;;;11.93;7.57;;;30.90;90.00;;;;;;4189902;28;20119;-62
2021/07/14 10:08:27;;;;;;;12.80;7.20;;;31.00;88.40;;;;;;4190261;28;20597;-61
2021/07/14 10:10:29;;;;;;;8.88;6.68;;;30.90;89.50;;;;;;4189984;28;20106;-61
2021/07/14 10:12:34;;;;;;;9.88;6.55;;;31.00;89.30;;;;;;4190977;28;20727;-62
2021/07/14 10:14:36;;;;;;;8.85;6.50;;;31.10;89.10;;;;;;4190178;28;20037;-61
2021/07/14 10:16:40;;;;;;;17.63;7.35;;;31.10;88.50;;;;;;4190965;28;20020;-61
2021/07/14 10:18:56;;;;;;;9.77;6.55;;;31.10;87.70;;;;;;4190086;28;20101;-61
2021/07/14 10:20:57;;;;;;;20.85;11.40;;;31.10;86.90;;;;;;4190650;28;20032;-61
2021/07/14 10:23:03;;;;;;;13.25;6.95;;;31.10;87.50;;;;;;4189582;28;20089;-60
2021/07/14 10:25:05;;;;;;;10.45;6.68;;;31.20;87.60;;;;;;4190871;28;20129;-61
2021/07/14 10:27:06;;;;;;;9.23;6.75;;;31.20;87.70;;;;;;4190009;28;20028;-61
2021/07/14 10:29:08;;;;;;;24.67;11.52;;;31.20;86.70;;;;;;4190853;28;20060;-61
2021/07/14 10:31:10;;;;;;;17.63;8.65;;;31.30;86.60;;;;;;4190122;28;20020;-61
2021/07/14 10:33:11;;;;;;;11.27;6.90;;;31.40;87.00;;;;;;4189147;28;20033;-62
2021/07/14 10:35:19;;;;;;;6.95;6.35;;;31.60;86.60;;;;;;4189928;28;20025;-62
2021/07/14 10:37:21;;;;;;;12.32;7.88;;;31.60;85.90;;;;;;4190658;28;20174;-62
2021/07/14 10:39:25;;;;;;;11.77;7.38;;;31.70;85.20;;;;;;4190415;28;20029;-61